Time;durP1;ratioP1;P1;durP2;ratioP2;P2;SDS_P1;SDS_P2;PMS_P1;PMS_P2;Temp;Humidity;BMP_temperature;BMP_pressure;BME280_temperature;BME280_humidity;BME280_pressure;Samples;Min_cycle;Max_cycle;Signal;HPM_P1;HPM_P2
2022/08/12 00:42:59;;;;;;;;;;;19.70;91.40;;;;;;5088950;28;19943;-90
2022/08/12 00:46:29;;;;;;;;;;;19.60;92.00;;;;;;5073214;28;19924;-90
2022/08/12 00:48:19;;;;;;;;;;;19.50;91.90;;;;;;5059247;28;19940;-90
2022/08/12 00:50:51;;;;;;;;;;;19.50;92.00;;;;;;5087267;28;19924;-90
2022/08/12 00:53:20;;;;;;;;;;;19.50;92.10;;;;;;5073946;28;19924;-90
2022/08/12 00:55:57;;;;;;;;;;;19.40;93.00;;;;;;5081205;28;19924;-90
2022/08/12 00:58:30;;;;;;;;;;;19.40;92.60;;;;;;5114535;28;19924;-89
2022/08/12 01:01:00;;;;;;;;;;;19.40;92.30;;;;;;5117913;28;19924;-90
2022/08/12 01:11:27;;;;;;;;;;;19.40;92.60;;;;;;5102531;28;19930;-90
2022/08/12 01:12:05;;;;;;;;;;;19.50;92.20;;;;;;5096388;28;19946;-90
2022/08/12 01:14:38;;;;;;;;;;;19.40;92.40;;;;;;5065548;28;19924;-90
2022/08/12 01:17:11;;;;;;;;;;;19.40;92.20;;;;;;5096778;28;19922;-90
2022/08/12 01:19:52;;;;;;;;;;;18.90;92.30;;;;;;5082091;28;19908;-90
2022/08/12 01:22:24;;;;;;;;;;;19.40;92.20;;;;;;5063929;28;19927;-91
2022/08/12 01:25:04;;;;;;;;;;;19.60;92.30;;;;;;5061820;28;19924;-91
2022/08/12 01:27:34;;;;;;;;;;;20.20;92.30;;;;;;5108646;28;19923;-91
2022/08/12 01:30:07;;;;;;;;;;;19.40;92.70;;;;;;5107527;28;19934;-91
2022/08/12 01:32:38;;;;;;;;;;;19.40;92.50;;;;;;5088621;28;19927;-90
2022/08/12 01:35:10;;;;;;;;;;;19.40;92.60;;;;;;5071970;28;19931;-90
2022/08/12 01:37:57;;;;;;;;;;;19.30;92.90;;;;;;5087871;28;19924;-91
2022/08/12 01:40:29;;;;;;;;;;;19.30;92.50;;;;;;5088629;28;19924;-90
2022/08/12 01:43:08;;;;;;;;;;;18.70;92.60;;;;;;5088602;28;19927;-91
2022/08/12 01:45:42;;;;;;;;;;;19.20;92.80;;;;;;5087858;28;19932;-90
2022/08/12 01:48:24;;;;;;;;;;;19.10;93.10;;;;;;5111905;28;19927;-90
2022/08/12 01:51:12;;;;;;;;;;;19.00;92.70;;;;;;5097601;28;19927;-90
2022/08/12 01:54:06;;;;;;;;;;;20.20;93.00;;;;;;5087452;28;19934;-91
2022/08/12 01:56:44;;;;;;;;;;;18.70;93.50;;;;;;5099834;28;19923;-90
2022/08/12 02:02:03;;;;;;;;;;;18.80;93.10;;;;;;5106701;28;19924;-90
2022/08/12 02:13:20;;;;;;;;;;;18.70;93.30;;;;;;5088038;28;19928;-91
2022/08/12 02:16:22;;;;;;;;;;;18.60;93.40;;;;;;5077125;28;19923;-90
2022/08/12 02:19:05;;;;;;;;;;;18.50;93.60;;;;;;5100000;28;19938;-89
2022/08/12 02:21:59;;;;;;;;;;;18.30;93.70;;;;;;5102031;28;19924;-90
2022/08/12 02:24:33;;;;;;;;;;;18.30;93.80;;;;;;5071035;28;19924;-91
2022/08/12 02:27:03;;;;;;;;;;;17.30;93.70;;;;;;5072888;28;19923;-90
2022/08/12 02:29:30;;;;;;;;;;;18.30;94.00;;;;;;5101430;28;19924;-90
2022/08/12 02:32:03;;;;;;;;;;;18.30;94.40;;;;;;5101649;28;19911;-90
2022/08/12 02:34:37;;;;;;;;;;;18.40;93.80;;;;;;5055228;28;19928;-90
2022/08/12 02:37:09;;;;;;;;;;;18.40;93.70;;;;;;5072302;28;19928;-91
2022/08/12 02:39:45;;;;;;;;;;;18.40;93.90;;;;;;5088950;28;19923;-89
2022/08/12 02:42:19;;;;;;;;;;;18.40;93.90;;;;;;5098333;28;19923;-90
2022/08/12 02:44:50;;;;;;;;;;;18.40;93.90;;;;;;5102126;28;19928;-90
2022/08/12 02:47:44;;;;;;;;;;;18.40;93.70;;;;;;5102162;28;19925;-90
2022/08/12 02:50:32;;;;;;;;;;;18.40;93.90;;;;;;5099421;28;19931;-89
2022/08/12 02:53:01;;;;;;;;;;;18.30;93.90;;;;;;5087237;28;19924;-90
2022/08/12 02:55:34;;;;;;;;;;;18.30;93.80;;;;;;5056910;28;19937;-90
2022/08/12 02:58:08;;;;;;;;;;;18.30;94.00;;;;;;5120918;28;19935;-91
2022/08/12 03:00:39;;;;;;;;;;;18.00;94.20;;;;;;5088774;28;19930;-89
2022/08/12 03:03:09;;;;;;;;;;;18.60;94.50;;;;;;5102271;28;19928;-90
2022/08/12 03:05:47;;;;;;;;;;;18.10;94.20;;;;;;5068634;28;19935;-90
2022/08/12 03:08:18;;;;;;;;;;;18.10;94.30;;;;;;5084998;28;19935;-91
2022/08/12 03:11:04;;;;;;;;;;;18.00;94.30;;;;;;5085035;28;19924;-90
2022/08/12 03:13:40;;;;;;;;;;;18.10;94.40;;;;;;5081337;28;19928;-91
2022/08/12 03:16:08;;;;;;;;;;;18.10;94.50;;;;;;5081415;28;19924;-90
2022/08/12 03:18:36;;;;;;;;;;;18.00;95.10;;;;;;5063094;28;19924;-89
2022/08/12 03:21:04;;;;;;;;;;;18.10;94.30;;;;;;5045454;28;19924;-90
2022/08/12 03:23:32;;;;;;;;;;;17.70;94.80;;;;;;5077782;28;19924;-90
2022/08/12 03:26:04;;;;;;;;;;;18.00;94.50;;;;;;5053613;28;19924;-91
2022/08/12 03:31:21;;;;;;;;;;;17.90;94.50;;;;;;5080796;28;19935;-90
2022/08/12 03:33:52;;;;;;;;;;;17.90;94.60;;;;;;5081134;28;19924;-90
2022/08/12 03:36:33;;;;;;;;;;;17.90;94.50;;;;;;5066503;28;19932;-89
2022/08/12 03:41:50;;;;;;;;;;;17.60;94.60;;;;;;5061029;28;19935;-90
2022/08/12 04:01:12;;;;;;;;;;;17.70;95.40;;;;;;5085270;28;19924;-90
2022/08/12 04:03:52;;;;;;;;;;;17.90;95.70;;;;;;5084817;28;19932;-90
2022/08/12 04:06:25;;;;;;;;;;;17.50;95.50;;;;;;5069063;28;19924;-91
2022/08/12 04:09:04;;;;;;;;;;;17.50;95.20;;;;;;5077743;28;19908;-91
2022/08/12 04:14:31;;;;;;;;;;;15.60;94.90;;;;;;5091809;28;19993;-89
2022/08/12 04:17:00;;;;;;;;;;;17.50;95.50;;;;;;5068439;28;19934;-89
2022/08/12 04:19:29;;;;;;;;;;;18.40;95.90;;;;;;5047924;28;19932;-90
2022/08/12 04:21:57;;;;;;;;;;;18.10;96.10;;;;;;5062939;28;20309;-91
2022/08/12 04:24:34;;;;;;;;;;;17.40;95.70;;;;;;5068921;28;19928;-89
2022/08/12 04:27:04;;;;;;;;;;;17.40;95.70;;;;;;5071530;28;19928;-90
2022/08/12 04:29:33;;;;;;;;;;;17.10;95.60;;;;;;5069124;28;19932;-89
2022/08/12 04:32:20;;;;;;;;;;;17.40;95.60;;;;;;5062018;28;19928;-90
2022/08/12 04:34:49;;;;;;;;;;;17.40;96.20;;;;;;5061585;28;19928;-90
2022/08/12 04:37:16;;;;;;;;;;;17.30;96.00;;;;;;5062000;28;19924;-90
2022/08/12 04:39:44;;;;;;;;;;;17.30;97.00;;;;;;5045756;28;19932;-90
2022/08/12 04:42:12;;;;;;;;;;;17.30;96.30;;;;;;5062359;28;19924;-90
2022/08/12 04:44:41;;;;;;;;;;;17.30;96.30;;;;;;5079181;28;20339;-89
2022/08/12 04:47:10;;;;;;;;;;;17.30;96.00;;;;;;5062237;28;19952;-90
2022/08/12 04:49:40;;;;;;;;;;;17.30;96.20;;;;;;5048342;28;19924;-90
2022/08/12 04:52:08;;;;;;;;;;;17.20;96.20;;;;;;5063112;28;19928;-89
2022/08/12 04:54:36;;;;;;;;;;;17.20;96.40;;;;;;5064106;28;19925;-90
2022/08/12 04:57:08;;;;;;;;;;;17.30;96.20;;;;;;5081503;28;19928;-90
2022/08/12 04:59:36;;;;;;;;;;;17.30;96.20;;;;;;5092990;28;19924;-89
2022/08/12 05:02:16;;;;;;;;;;;17.30;96.30;;;;;;5080236;28;19936;-90
2022/08/12 05:04:56;;;;;;;;;;;17.30;96.20;;;;;;5063737;28;19925;-90
2022/08/12 05:07:32;;;;;;;;;;;18.40;96.60;;;;;;5071170;28;19931;-90
2022/08/12 05:10:25;;;;;;;;;;;17.30;96.30;;;;;;5078864;28;19924;-91
2022/08/12 05:13:10;;;;;;;;;;;17.20;96.20;;;;;;5065013;28;19924;-89
2022/08/12 05:15:39;;;;;;;;;;;17.40;96.20;;;;;;5059606;28;19924;-90
2022/08/12 05:18:27;;;;;;;;;;;17.50;96.30;;;;;;5070237;28;19925;-90
2022/08/12 05:20:57;;;;;;;;;;;15.20;95.80;;;;;;5068200;28;19925;-89
2022/08/12 05:23:30;;;;;;;;;;;17.50;96.40;;;;;;5074873;28;19938;-90
2022/08/12 05:25:58;;;;;;;;;;;18.40;96.80;;;;;;5079881;28;19926;-90
2022/08/12 05:28:26;;;;;;;;;;;17.50;96.90;;;;;;5075590;28;19928;-90
2022/08/12 05:30:54;;;;;;;;;;;17.50;96.60;;;;;;5082825;28;19924;-90
2022/08/12 05:33:27;;;;;;;;;;;17.50;96.70;;;;;;5098617;28;19928;-90
2022/08/12 05:35:55;;;;;;;;;;;17.60;96.40;;;;;;5082837;28;19924;-90
2022/08/12 05:41:19;;;;;;;;;;;17.70;96.70;;;;;;5091978;28;19930;-90
2022/08/12 05:43:51;;;;;;;;;;;17.80;96.60;;;;;;5059457;28;19925;-90
2022/08/12 05:46:21;;;;;;;;;;;17.90;96.50;;;;;;5084108;28;19925;-90
2022/08/12 05:48:50;;;;;;;;;;;17.50;96.40;;;;;;5067400;28;19935;-90
2022/08/12 05:51:23;;;;;;;;;;;17.80;96.30;;;;;;5071521;28;19931;-90
2022/08/12 05:54:09;;;;;;;;;;;18.00;96.40;;;;;;5063754;28;19925;-89
2022/08/12 05:56:38;;;;;;;;;;;19.00;96.70;;;;;;5085578;28;19924;-90
2022/08/12 05:59:08;;;;;;;;;;;17.20;96.50;;;;;;5076029;28;19924;-90
2022/08/12 06:01:39;;;;;;;;;;;18.30;96.20;;;;;;5076695;28;19930;-90
2022/08/12 06:04:26;;;;;;;;;;;18.30;96.30;;;;;;5080190;28;19934;-90
2022/08/12 06:06:57;;;;;;;;;;;18.50;96.50;;;;;;5091984;28;20276;-90
2022/08/12 06:09:29;;;;;;;;;;;18.50;96.30;;;;;;5083873;28;19924;-91
2022/08/12 06:11:58;;;;;;;;;;;18.60;96.30;;;;;;5067036;28;19931;-91
2022/08/12 06:14:35;;;;;;;;;;;18.60;96.50;;;;;;5063376;28;19925;-90
2022/08/12 06:17:09;;;;;;;;;;;18.70;96.50;;;;;;5054228;28;19925;-90
2022/08/12 06:19:44;;;;;;;;;;;18.80;96.50;;;;;;5069486;28;19924;-90
2022/08/12 06:22:33;;;;;;;;;;;18.90;96.50;;;;;;5078884;28;20384;-92
2022/08/12 06:25:04;;;;;;;;;;;18.90;96.90;;;;;;5062671;28;19931;-90
2022/08/12 06:27:47;;;;;;;;;;;19.00;96.50;;;;;;5045397;28;20023;-91
2022/08/12 06:30:35;;;;;;;;;;;20.20;97.20;;;;;;5065213;28;19924;-91
2022/08/12 06:33:07;;;;;;;;;;;19.20;96.60;;;;;;5061440;28;19932;-90
2022/08/12 06:35:50;;;;;;;;;;;19.30;96.30;;;;;;5046767;28;19932;-91
2022/08/12 06:38:27;;;;;;;;;;;18.60;96.20;;;;;;5086776;28;19924;-89
2022/08/12 06:43:52;;;;;;;;;;;19.50;96.30;;;;;;5104786;28;19924;-90
2022/08/12 06:46:38;;;;;;;;;;;19.60;96.40;;;;;;5104474;28;19934;-90
2022/08/12 06:49:07;;;;;;;;;;;19.70;96.20;;;;;;5088354;28;19931;-90
2022/08/12 06:51:39;;;;;;;;;;;19.70;96.60;;;;;;5088727;28;19924;-90
2022/08/12 06:54:29;;;;;;;;;;;19.80;97.10;;;;;;5089335;28;19931;-90
2022/08/12 06:57:00;;;;;;;;;;;19.90;96.90;;;;;;5080416;28;19932;-90
2022/08/12 06:59:49;;;;;;;;;;;19.60;96.90;;;;;;5094249;28;19924;-91
2022/08/12 07:02:21;;;;;;;;;;;20.00;97.60;;;;;;5072924;28;19924;-89
2022/08/12 07:04:58;;;;;;;;;;;21.60;97.80;;;;;;5081819;28;19912;-90
2022/08/12 07:07:38;;;;;;;;;;;20.20;96.80;;;;;;5108757;28;19927;-90
2022/08/12 07:10:09;;;;;;;;;;;20.60;97.60;;;;;;5085410;28;19928;-90
2022/08/12 07:12:40;;;;;;;;;;;20.60;97.60;;;;;;5101633;28;19935;-90
2022/08/12 07:15:10;;;;;;;;;;;20.20;97.00;;;;;;5074053;28;19924;-90
2022/08/12 07:17:39;;;;;;;;;;;21.10;97.10;;;;;;5079948;28;19924;-90
2022/08/12 07:20:11;;;;;;;;;;;20.40;97.10;;;;;;5060402;28;19931;-90
2022/08/12 07:23:00;;;;;;;;;;;20.80;96.60;;;;;;5086261;28;20418;-90
2022/08/12 07:25:33;;;;;;;;;;;21.30;96.40;;;;;;5085075;28;19931;-90
2022/08/12 07:28:13;;;;;;;;;;;21.10;96.60;;;;;;5104041;28;19935;-91
2022/08/12 07:30:44;;;;;;;;;;;21.20;97.00;;;;;;5086281;28;20364;-91
2022/08/12 07:33:15;;;;;;;;;;;24.20;97.50;;;;;;5083560;28;19932;-89
2022/08/12 07:35:44;;;;;;;;;;;22.90;97.70;;;;;;5083759;28;19924;-90
2022/08/12 07:38:30;;;;;;;;;;;21.30;96.70;;;;;;5080957;28;19951;-90
2022/08/12 07:41:04;;;;;;;;;;;21.40;96.10;;;;;;5061240;28;20291;-90
2022/08/12 07:43:34;;;;;;;;;;;21.50;96.40;;;;;;5072578;28;19924;-91
2022/08/12 07:46:03;;;;;;;;;;;21.60;96.40;;;;;;5064759;28;20375;-91
2022/08/12 07:48:39;;;;;;;;;;;21.70;96.20;;;;;;5058845;28;19925;-90
2022/08/12 07:51:07;;;;;;;;;;;21.70;96.10;;;;;;5078174;28;19935;-91
2022/08/12 07:53:35;;;;;;;;;;;21.80;96.20;;;;;;5081270;28;19925;-90
2022/08/12 07:56:24;;;;;;;;;;;21.90;96.10;;;;;;5095435;28;19924;-91
2022/08/12 07:58:53;;;;;;;;;;;22.00;96.00;;;;;;5088286;28;19931;-89
2022/08/12 08:01:21;;;;;;;;;;;22.10;95.80;;;;;;5098223;28;19935;-90
2022/08/12 08:06:45;;;;;;;;;;;22.30;95.50;;;;;;5116403;28;19930;-90
2022/08/12 08:09:15;;;;;;;;;;;22.40;95.40;;;;;;5069610;28;19929;-91
2022/08/12 08:14:32;;;;;;;;;;;22.50;95.10;;;;;;5095666;28;19929;-91
2022/08/12 08:17:02;;;;;;;;;;;22.70;94.90;;;;;;5072016;28;19929;-89
2022/08/12 08:19:32;;;;;;;;;;;22.70;94.80;;;;;;5087178;28;19924;-91
2022/08/12 08:22:23;;;;;;;;;;;22.90;94.90;;;;;;5105783;28;19948;-91
2022/08/12 08:25:08;;;;;;;;;;;23.00;94.50;;;;;;5079990;28;19931;-90
2022/08/12 08:27:56;;;;;;;;;;;23.10;94.60;;;;;;5081979;28;19935;-91
2022/08/12 08:30:23;;;;;;;;;;;23.20;94.20;;;;;;5060405;28;19925;-90
2022/08/12 08:32:51;;;;;;;;;;;23.30;94.20;;;;;;5060071;28;19925;-92
2022/08/12 08:35:21;;;;;;;;;;;23.50;94.10;;;;;;5076502;28;20091;-92
2022/08/12 08:37:52;;;;;;;;;;;23.60;93.70;;;;;;5075795;28;19924;-90
2022/08/12 08:43:21;;;;;;;;;;;23.70;93.30;;;;;;5066581;28;19934;-91
2022/08/12 08:46:09;;;;;;;;;;;23.90;93.30;;;;;;5046900;28;19928;-92
2022/08/12 08:48:37;;;;;;;;;;;24.10;92.80;;;;;;5057737;28;19944;-91
2022/08/12 08:51:05;;;;;;;;;;;24.10;92.50;;;;;;5051319;28;20395;-91
2022/08/12 08:53:40;;;;;;;;;;;24.10;92.20;;;;;;5073342;28;20015;-91
2022/08/12 08:56:10;;;;;;;;;;;24.30;92.30;;;;;;5075093;28;19924;-90
2022/08/12 08:58:41;;;;;;;;;;;24.40;91.60;;;;;;5102914;28;19928;-91
2022/08/12 09:01:09;;;;;;;;;;;24.50;91.90;;;;;;5084127;28;20397;-92
2022/08/12 09:03:36;;;;;;;;;;;25.00;91.30;;;;;;5061026;28;19925;-91
2022/08/12 09:06:27;;;;;;;;;;;24.70;90.90;;;;;;5064522;28;19930;-90
2022/08/12 09:09:04;;;;;;;;;;;24.80;91.00;;;;;;5077360;28;19928;-89
2022/08/12 09:14:42;;;;;;;;;;;25.00;90.30;;;;;;5095476;28;19924;-91
2022/08/12 09:17:19;;;;;;;;;;;25.20;90.70;;;;;;5043522;28;19932;-90
2022/08/12 09:20:08;;;;;;;;;;;25.30;90.10;;;;;;5057245;28;19931;-91
2022/08/12 09:22:35;;;;;;;;;;;25.40;89.60;;;;;;5075435;28;19933;-90
2022/08/12 09:25:05;;;;;;;;;;;25.50;88.80;;;;;;5058399;28;19928;-91
2022/08/12 09:27:35;;;;;;;;;;;25.60;87.60;;;;;;5037998;28;20237;-91
2022/08/12 09:30:23;;;;;;;;;;;25.80;87.40;;;;;;5056886;28;19924;-90
2022/08/12 09:33:09;;;;;;;;;;;25.80;86.10;;;;;;5045969;28;19928;-90
2022/08/12 09:35:45;;;;;;;;;;;26.00;86.70;;;;;;5050569;28;19925;-90
2022/08/12 09:38:32;;;;;;;;;;;26.10;87.20;;;;;;5076579;28;19925;-90
2022/08/12 09:41:03;;;;;;;;;;;26.20;86.90;;;;;;5043929;28;19935;-92
2022/08/12 09:46:57;;;;;;;;;;;26.50;85.60;;;;;;5062044;28;19929;-91
2022/08/12 09:49:26;;;;;;;;;;;26.60;85.70;;;;;;5060622;28;20387;-92
2022/08/12 09:51:54;;;;;;;;;;;26.60;84.60;;;;;;5049955;28;19925;-91
2022/08/12 09:54:24;;;;;;;;;;;26.80;85.60;;;;;;5052225;28;19929;-91
2022/08/12 09:57:08;;;;;;;;;;;26.90;84.90;;;;;;5049962;28;19928;-90
2022/08/12 09:59:56;;;;;;;;;;;27.00;84.00;;;;;;5038505;28;20288;-91
2022/08/12 10:03:04;;;;;;;;;;;27.10;82.60;;;;;;5066781;28;20400;-92
2022/08/12 10:05:35;;;;;;;;;;;27.20;82.00;;;;;;5051797;28;19929;-91
2022/08/12 10:08:26;;;;;;;;;;;27.40;80.70;;;;;;5058860;28;19934;-91
2022/08/12 10:13:48;;;;;;;;;;;27.50;79.40;;;;;;5107428;28;19924;-90
2022/08/12 10:16:32;;;;;;;;;;;27.60;79.60;;;;;;5059934;28;19932;-91
2022/08/12 10:19:07;;;;;;;;;;;27.70;79.20;;;;;;5058730;28;19925;-91
2022/08/12 10:21:44;;;;;;;;;;;27.80;77.10;;;;;;5064229;28;19925;-91
2022/08/12 10:24:13;;;;;;;;;;;27.90;77.00;;;;;;5077101;28;19931;-91
2022/08/12 10:29:43;;;;;;;;;;;28.20;75.60;;;;;;5094449;28;19924;-92
2022/08/12 10:32:30;;;;;;;;;;;28.20;74.70;;;;;;5063548;28;19924;-91
2022/08/12 10:35:15;;;;;;;;;;;28.40;75.30;;;;;;5065290;28;19928;-91
2022/08/12 10:37:44;;;;;;;;;;;28.50;74.70;;;;;;5090574;28;20031;-92
2022/08/12 10:40:32;;;;;;;;;;;28.60;73.60;;;;;;5055732;28;19928;-92
2022/08/12 10:45:55;;;;;;;;;;;28.80;73.60;;;;;;5084246;28;20390;-91
2022/08/12 10:48:25;;;;;;;;;;;29.00;72.30;;;;;;5054396;28;19925;-92
2022/08/12 10:51:03;;;;;;;;;;;29.10;71.90;;;;;;5054541;28;19935;-91
2022/08/12 10:53:53;;;;;;;;;;;29.30;70.70;;;;;;5084367;28;19950;-91
2022/08/12 10:56:27;;;;;;;;;;;29.40;71.30;;;;;;5048778;28;19925;-92
2022/08/12 10:59:03;;;;;;;;;;;29.60;69.60;;;;;;5072130;28;20379;-91
2022/08/12 11:01:41;;;;;;;;;;;29.70;69.50;;;;;;5070646;28;19924;-91
2022/08/12 11:04:29;;;;;;;;;;;29.90;69.50;;;;;;5072468;28;19931;-92
2022/08/12 11:07:16;;;;;;;;;;;30.00;68.80;;;;;;5055770;28;19925;-91
2022/08/12 11:10:04;;;;;;;;;;;30.10;68.80;;;;;;5087357;28;19931;-92
2022/08/12 11:12:31;;;;;;;;;;;30.30;67.80;;;;;;5073359;28;20058;-92
2022/08/12 11:15:22;;;;;;;;;;;30.40;65.90;;;;;;5073614;28;19935;-92
2022/08/12 11:18:11;;;;;;;;;;;30.50;67.00;;;;;;5061521;28;20292;-92
2022/08/12 11:20:46;;;;;;;;;;;30.20;66.60;;;;;;5059498;28;19935;-93
2022/08/12 11:23:14;;;;;;;;;;;30.80;66.60;;;;;;5076702;28;19931;-92
2022/08/12 11:26:02;;;;;;;;;;;30.90;66.90;;;;;;5067576;28;19935;-91
2022/08/12 11:28:34;;;;;;;;;;;30.90;65.20;;;;;;5055634;28;19932;-91
2022/08/12 11:31:08;;;;;;;;;;;31.10;64.70;;;;;;5054975;28;19954;-91
2022/08/12 11:33:41;;;;;;;;;;;31.10;63.00;;;;;;5059728;28;19925;-92
2022/08/12 11:36:29;;;;;;;;;;;31.20;64.20;;;;;;5050910;28;19925;-92
2022/08/12 11:38:57;;;;;;;;;;;31.20;63.90;;;;;;5064058;28;19931;-93
2022/08/12 11:41:31;;;;;;;;;;;31.40;62.10;;;;;;5060412;28;19940;-92
2022/08/12 11:44:00;;;;;;;;;;;31.70;62.40;;;;;;5056850;28;19929;-91
2022/08/12 11:46:48;;;;;;;;;;;31.60;62.20;;;;;;5041102;28;19925;-91
2022/08/12 11:49:23;;;;;;;;;;;31.70;61.90;;;;;;5054845;28;19925;-92
2022/08/12 11:52:00;;;;;;;;;;;31.80;61.40;;;;;;5043911;28;20505;-91
2022/08/12 11:54:29;;;;;;;;;;;31.90;60.50;;;;;;5061700;28;19947;-92
2022/08/12 11:56:58;;;;;;;;;;;32.10;60.70;;;;;;5073029;28;19928;-92
2022/08/12 11:59:30;;;;;;;;;;;32.10;59.80;;;;;;5058604;28;19939;-91
2022/08/12 12:02:18;;;;;;;;;;;32.20;60.50;;;;;;5066864;28;19924;-92
2022/08/12 12:04:48;;;;;;;;;;;32.30;60.30;;;;;;5114435;28;19924;-91
2022/08/12 12:07:21;;;;;;;;;;;32.30;58.80;;;;;;5098046;28;19932;-92
2022/08/12 12:10:10;;;;;;;;;;;32.30;58.40;;;;;;5070354;28;19908;-93
2022/08/12 12:12:38;;;;;;;;;;;32.30;58.10;;;;;;5086132;28;19931;-92
2022/08/12 12:15:08;;;;;;;;;;;32.40;58.50;;;;;;5065366;28;19939;-92
2022/08/12 12:17:37;;;;;;;;;;;32.40;58.00;;;;;;5084257;28;19931;-92
2022/08/12 12:20:08;;;;;;;;;;;32.40;57.90;;;;;;5080226;28;19939;-92
2022/08/12 12:22:36;;;;;;;;;;;32.40;56.70;;;;;;5061479;28;19928;-93
2022/08/12 12:25:04;;;;;;;;;;;32.40;56.50;;;;;;5066539;28;20315;-93
2022/08/12 12:27:43;;;;;;;;;;;32.40;57.00;;;;;;5091040;28;19927;-93
2022/08/12 12:30:31;;;;;;;;;;;32.40;56.20;;;;;;5083708;28;19916;-93
2022/08/12 12:33:01;;;;;;;;;;;32.40;55.80;;;;;;5099966;28;19922;-92
2022/08/12 12:35:28;;;;;;;;;;;32.30;55.70;;;;;;5068388;28;19919;-93
2022/08/12 12:38:17;;;;;;;;;;;32.40;56.80;;;;;;5081599;28;19924;-92
2022/08/12 12:40:45;;;;;;;;;;;32.50;56.40;;;;;;5095314;28;19928;-93
2022/08/12 12:43:16;;;;;;;;;;;32.60;56.50;;;;;;5066640;28;19924;-92
2022/08/12 12:46:07;;;;;;;;;;;32.60;56.70;;;;;;5112526;27;19951;-93
2022/08/12 12:48:35;;;;;;;;;;;32.60;57.30;;;;;;5103202;27;19927;-92
2022/08/12 12:51:14;;;;;;;;;;;32.90;57.40;;;;;;5102374;27;19923;-92
2022/08/12 12:54:02;;;;;;;;;;;32.90;57.50;;;;;;5067370;28;19928;-93
2022/08/12 12:56:39;;;;;;;;;;;33.00;56.20;;;;;;5078828;28;19945;-93
2022/08/12 12:59:07;;;;;;;;;;;33.10;56.00;;;;;;5077958;28;19924;-93
2022/08/12 13:01:54;;;;;;;;;;;33.20;56.00;;;;;;5065440;28;19932;-93
2022/08/12 13:04:23;;;;;;;;;;;33.30;56.00;;;;;;5060464;28;20447;-92
2022/08/12 13:06:53;;;;;;;;;;;33.30;55.90;;;;;;5044404;28;19924;-93
2022/08/12 13:09:21;;;;;;;;;;;33.30;55.10;;;;;;5071768;28;19931;-92
2022/08/12 13:11:49;;;;;;;;;;;33.30;54.50;;;;;;5098716;28;19932;-92
2022/08/12 13:14:21;;;;;;;;;;;33.30;55.10;;;;;;5094128;28;19928;-92
2022/08/12 13:16:54;;;;;;;;;;;33.30;55.10;;;;;;5077198;28;19927;-93
2022/08/12 13:19:22;;;;;;;;;;;33.30;55.10;;;;;;5059027;28;19931;-93
2022/08/12 13:22:17;;;;;;;;;;;33.30;55.40;;;;;;5079224;28;20398;-93
2022/08/12 13:24:47;;;;;;;;;;;33.30;54.70;;;;;;5064140;28;19924;-91
2022/08/12 13:27:28;;;;;;;;;;;33.30;54.70;;;;;;5073807;28;19924;-92
2022/08/12 13:30:08;;;;;;;;;;;33.30;55.00;;;;;;5072468;28;19935;-91
2022/08/12 13:32:44;;;;;;;;;;;33.40;53.70;;;;;;5058962;28;19934;-92
2022/08/12 13:35:24;;;;;;;;;;;33.50;53.90;;;;;;5098370;28;20041;-92
2022/08/12 13:38:11;;;;;;;;;;;33.60;54.40;;;;;;5064613;28;19928;-91
2022/08/12 13:40:40;;;;;;;;;;;33.70;54.30;;;;;;5080441;28;19924;-92
2022/08/12 13:43:16;;;;;;;;;;;33.80;54.50;;;;;;5097556;28;19928;-93
2022/08/12 13:46:08;;;;;;;;;;;33.80;54.30;;;;;;5084430;28;19927;-93
2022/08/12 13:48:39;;;;;;;;;;;33.80;54.80;;;;;;5101603;28;19924;-93
2022/08/12 13:51:12;;;;;;;;;;;34.00;54.00;;;;;;5069220;28;19928;-91
2022/08/12 13:53:40;;;;;;;;;;;34.30;54.20;;;;;;5114027;28;19928;-91
2022/08/12 13:56:29;;;;;;;;;;;34.50;54.30;;;;;;5100417;28;19930;-94
2022/08/12 13:59:04;;;;;;;;;;;34.70;53.70;;;;;;5079196;28;20166;-93
2022/08/12 14:01:36;;;;;;;;;;;34.80;53.20;;;;;;5064570;28;19934;-94
2022/08/12 14:04:08;;;;;;;;;;;34.80;51.10;;;;;;5084599;28;19923;-93
2022/08/12 14:06:38;;;;;;;;;;;35.00;51.60;;;;;;5093229;28;19924;-93
2022/08/12 14:09:06;;;;;;;;;;;35.20;51.20;;;;;;5086236;28;19939;-91
2022/08/12 14:11:45;;;;;;;;;;;35.30;51.30;;;;;;5080240;28;19947;-92
2022/08/12 14:14:25;;;;;;;;;;;35.40;51.30;;;;;;5067506;28;19954;-93
2022/08/12 14:16:53;;;;;;;;;;;35.40;49.80;;;;;;5104361;28;19928;-91
2022/08/12 14:19:22;;;;;;;;;;;35.70;50.80;;;;;;5082914;28;19923;-93
2022/08/12 14:22:03;;;;;;;;;;;35.80;50.30;;;;;;5095026;28;19931;-92
2022/08/12 14:24:35;;;;;;;;;;;35.90;50.20;;;;;;5078601;28;19923;-91
2022/08/12 14:27:08;;;;;;;;;;;36.10;50.70;;;;;;5077576;28;19923;-94
2022/08/12 14:29:40;;;;;;;;;;;36.20;49.60;;;;;;5078545;28;19934;-92
2022/08/12 14:32:35;;;;;;;;;;;36.20;49.70;;;;;;5100274;28;19934;-91
2022/08/12 14:35:05;;;;;;;;;;;35.30;47.90;;;;;;5076623;28;19932;-91
2022/08/12 14:37:36;;;;;;;;;;;36.40;49.40;;;;;;5063450;28;19982;-92
2022/08/12 14:40:27;;;;;;;;;;;36.40;48.70;;;;;;5083407;28;19931;-92
2022/08/12 14:42:57;;;;;;;;;;;36.50;48.50;;;;;;5058818;28;19924;-92
2022/08/12 14:45:43;;;;;;;;;;;36.60;48.40;;;;;;5087394;28;20156;-91
2022/08/12 14:48:18;;;;;;;;;;;36.70;47.60;;;;;;5115013;28;20294;-93
2022/08/12 14:50:51;;;;;;;;;;;36.30;47.90;;;;;;5080165;28;20023;-92
2022/08/12 14:53:40;;;;;;;;;;;37.00;48.20;;;;;;5080208;28;19924;-90
2022/08/12 14:56:29;;;;;;;;;;;37.10;48.70;;;;;;5056161;28;20020;-90
2022/08/12 15:02:23;;;;;;;;;;;37.10;48.00;;;;;;5092862;28;19931;-94
2022/08/12 15:04:57;;;;;;;;;;;37.00;48.20;;;;;;5059796;28;19931;-93
2022/08/12 15:07:26;;;;;;;;;;;37.10;48.60;;;;;;5077504;28;19928;-90
2022/08/12 15:10:14;;;;;;;;;;;37.10;48.40;;;;;;5062862;28;20414;-91
2022/08/12 15:12:58;;;;;;;;;;;37.20;47.70;;;;;;5092337;28;19935;-91
2022/08/12 15:15:26;;;;;;;;;;;37.30;47.80;;;;;;5099022;28;19932;-92
2022/08/12 15:18:00;;;;;;;;;;;37.10;47.50;;;;;;5106409;28;19927;-91
2022/08/12 15:20:28;;;;;;;;;;;37.00;48.00;;;;;;5129124;28;19924;-93
2022/08/12 15:23:06;;;;;;;;;;;36.80;47.70;;;;;;5109690;28;19947;-92
2022/08/12 15:25:46;;;;;;;;;;;36.80;47.40;;;;;;5110731;28;19924;-92
2022/08/12 15:28:21;;;;;;;;;;;36.90;48.00;;;;;;5088417;28;19924;-91
2022/08/12 15:30:51;;;;;;;;;;;37.00;47.80;;;;;;5087967;28;19930;-93
2022/08/12 15:33:19;;;;;;;;;;;37.00;47.80;;;;;;5106998;28;20271;-93
2022/08/12 15:35:50;;;;;;;;;;;37.10;47.90;;;;;;5100810;28;19934;-92
2022/08/12 15:38:30;;;;;;;;;;;36.90;48.50;;;;;;5097556;28;19931;-92
2022/08/12 15:40:59;;;;;;;;;;;37.00;48.50;;;;;;5081321;28;19939;-92
2022/08/12 15:43:30;;;;;;;;;;;37.00;48.40;;;;;;5084286;28;19924;-91
2022/08/12 15:46:17;;;;;;;;;;;37.20;48.00;;;;;;5125118;28;19924;-92
2022/08/12 15:48:52;;;;;;;;;;;37.30;48.00;;;;;;5092017;28;19924;-91
2022/08/12 15:51:27;;;;;;;;;;;37.60;48.10;;;;;;5102183;28;19931;-90
2022/08/12 15:54:16;;;;;;;;;;;37.80;48.10;;;;;;5087198;28;20315;-90
2022/08/12 15:57:04;;;;;;;;;;;38.00;47.60;;;;;;5117253;28;19931;-90
2022/08/12 15:59:37;;;;;;;;;;;38.10;47.10;;;;;;5084352;28;19928;-91
2022/08/12 16:02:25;;;;;;;;;;;38.10;46.80;;;;;;5088233;28;19924;-92
2022/08/12 16:04:56;;;;;;;;;;;38.30;47.00;;;;;;5100659;28;19924;-90
2022/08/12 16:07:26;;;;;;;;;;;38.50;47.00;;;;;;5105121;28;19935;-90
2022/08/12 16:10:08;;;;;;;;;;;38.50;47.10;;;;;;5077514;28;20556;-91
2022/08/12 16:12:38;;;;;;;;;;;38.90;46.80;;;;;;5062188;28;20336;-90
2022/08/12 16:15:05;;;;;;;;;;;38.50;46.30;;;;;;5095125;28;20082;-90
2022/08/12 16:17:35;;;;;;;;;;;38.40;45.80;;;;;;5094261;27;19928;-92
2022/08/12 16:20:25;;;;;;;;;;;38.00;45.60;;;;;;5131175;27;19934;-91
2022/08/12 16:23:05;;;;;;;;;;;37.60;45.70;;;;;;5111059;27;19923;-90
2022/08/12 16:25:53;;;;;;;;;;;37.50;46.40;;;;;;5121857;27;19928;-91
2022/08/12 16:28:33;;;;;;;;;;;37.40;46.50;;;;;;5118837;27;20204;-92
2022/08/12 16:31:01;;;;;;;;;;;37.30;46.50;;;;;;5086684;27;19923;-92
2022/08/12 16:33:36;;;;;;;;;;;37.40;46.40;;;;;;5107867;27;19924;-92
2022/08/12 16:36:24;;;;;;;;;;;37.50;46.50;;;;;;5098467;28;19928;-92
2022/08/12 16:38:51;;;;;;;;;;;37.50;46.50;;;;;;5093278;28;20333;-88
2022/08/12 16:41:20;;;;;;;;;;;37.80;46.60;;;;;;5104536;28;19935;-90
2022/08/12 16:43:48;;;;;;;;;;;37.80;46.20;;;;;;5066060;28;20386;-93
2022/08/12 16:46:17;;;;;;;;;;;38.00;46.30;;;;;;5101290;28;19927;-90
2022/08/12 16:49:03;;;;;;;;;;;38.00;46.00;;;;;;5083846;28;20298;-92
2022/08/12 16:51:40;;;;;;;;;;;37.90;46.40;;;;;;5096615;28;19934;-91
2022/08/12 16:54:21;;;;;;;;;;;37.70;45.60;;;;;;5096878;28;19930;-92
2022/08/12 16:57:08;;;;;;;;;;;37.80;45.40;;;;;;5076868;28;19924;-91
2022/08/12 16:59:39;;;;;;;;;;;37.70;46.40;;;;;;5060754;28;19928;-92
2022/08/12 17:02:21;;;;;;;;;;;37.80;46.10;;;;;;5102667;28;19939;-92